Time,TemperatureF,DewpointF,PressureIn,WindDirection,WindDirectionDegrees,WindSpeedMPH,WindSpeedGustMPH,Humidity,HourlyPrecipIn,Conditions,Clouds,dailyrainin,SoftwareType,DateUTC
2013-07-13 00:11:00,66.0,63.0,-100.00,NNW,340,0.0,1.0,92,-99.99,,,-99.99,,2013-07-13 05:11:00,
2013-07-13 00:22:00,66.0,63.0,-100.00,NNW,340,0.0,1.0,92,-99.99,,,-99.99,,2013-07-13 05:22:00,
2013-07-13 00:32:00,65.0,63.0,-100.00,East,95,0.0,1.0,93,-99.99,,,-99.99,,2013-07-13 05:32:00,
2013-07-13 00:42:00,65.0,63.0,-100.00,NE,35,0.0,0.0,94,-99.99,,,-99.99,,2013-07-13 05:42:00,
2013-07-13 00:52:00,65.0,63.0,-100.00,NE,35,0.0,0.0,94,-99.99,,,-99.99,,2013-07-13 05:52:00,
2013-07-13 01:22:00,64.0,62.0,-100.00,SSE,160,0.0,0.0,94,-99.99,,,-99.99,,2013-07-13 06:22:00,
2013-07-13 01:43:00,64.0,63.0,-100.00,SW,215,0.0,0.0,95,-99.99,,,-99.99,,2013-07-13 06:43:00,
2013-07-13 01:52:00,64.0,63.0,-100.00,SW,215,0.0,0.0,95,-99.99,,,-99.99,,2013-07-13 06:52:00,
2013-07-13 02:22:00,63.0,62.0,-100.00,NE,50,0.0,0.0,95,-99.99,,,-99.99,,2013-07-13 07:22:00,
2013-07-13 02:44:00,63.0,62.0,-100.00,NNE,15,0.0,0.0,96,-99.99,,,-99.99,,2013-07-13 07:44:00,
2013-07-13 02:53:00,63.0,62.0,-100.00,NNE,15,0.0,0.0,96,-99.99,,,-99.99,,2013-07-13 07:53:00,
2013-07-13 03:22:00,63.0,61.0,-100.00,North,355,1.0,3.0,96,-99.99,,,-99.99,,2013-07-13 08:22:00,
2013-07-13 03:52:00,62.0,61.0,-100.00,North,5,0.0,0.0,96,-99.99,,,-99.99,,2013-07-13 08:52:00,
2013-07-13 04:22:00,62.0,61.0,-100.00,South,190,0.0,0.0,96,-99.99,,,-99.99,,2013-07-13 09:22:00,
2013-07-13 04:53:00,61.0,60.0,-100.00,WNW,295,0.0,0.0,96,-99.99,,,-99.99,,2013-07-13 09:53:00,
2013-07-13 05:11:00,61.0,60.0,-100.00,North,350,0.0,0.0,96,-99.99,,,-99.99,,2013-07-13 10:11:00,
2013-07-13 05:22:00,61.0,60.0,-100.00,North,350,0.0,0.0,96,-99.99,,,-99.99,,2013-07-13 10:22:00,
2013-07-13 05:43:00,61.0,59.0,-100.00,NNE,15,0.0,1.0,96,-99.99,,,-99.99,,2013-07-13 10:43:00,
2013-07-13 05:52:00,61.0,59.0,-100.00,NNE,15,0.0,1.0,96,-99.99,,,-99.99,,2013-07-13 10:52:00,
2013-07-13 06:11:00,61.0,59.0,-100.00,South,190,0.0,0.0,96,-99.99,,,-99.99,,2013-07-13 11:11:00,
2013-07-13 06:22:00,61.0,59.0,-100.00,South,190,0.0,0.0,96,-99.99,,,-99.99,,2013-07-13 11:22:00,
2013-07-13 06:42:00,61.0,60.0,-100.00,NNW,340,0.0,0.0,96,-99.99,,,-99.99,,2013-07-13 11:42:00,
2013-07-13 06:52:00,61.0,60.0,-100.00,NNW,340,0.0,0.0,96,-99.99,,,-99.99,,2013-07-13 11:52:00,
2013-07-13 07:22:00,63.0,62.0,-100.00,ESE,110,0.0,0.0,96,-99.99,,,-99.99,,2013-07-13 12:22:00,
2013-07-13 07:43:00,66.0,65.0,-100.00,NE,35,0.0,1.0,96,-99.99,,,-99.99,,2013-07-13 12:43:00,
2013-07-13 07:52:00,66.0,65.0,-100.00,NE,35,0.0,1.0,96,-99.99,,,-99.99,,2013-07-13 12:52:00,
2013-07-13 08:22:00,68.0,67.0,-100.00,NE,45,1.0,2.0,96,-99.99,,,-99.99,,2013-07-13 13:22:00,
2013-07-13 08:43:00,72.0,66.0,-100.00,ENE,75,1.0,2.0,79,-99.99,,,-99.99,,2013-07-13 13:43:00,
2013-07-13 08:53:00,72.0,66.0,-100.00,ENE,75,1.0,2.0,79,-99.99,,,-99.99,,2013-07-13 13:53:00,
2013-07-13 09:22:00,73.0,62.0,-100.00,NNW,340,1.0,3.0,68,-99.99,,,-99.99,,2013-07-13 14:22:00,
2013-07-13 09:53:00,78.0,63.0,-100.00,NNE,25,3.0,4.0,61,-99.99,,,-99.99,,2013-07-13 14:53:00,
2013-07-13 10:22:00,79.0,63.0,-100.00,ENE,75,4.0,6.0,57,-99.99,,,-99.99,,2013-07-13 15:22:00,
2013-07-13 10:53:00,81.0,62.0,-100.00,NNE,25,3.0,4.0,53,-99.99,,,-99.99,,2013-07-13 15:53:00,
2013-07-13 11:11:00,82.0,62.0,-100.00,NNE,15,2.0,3.0,50,-99.99,,,-99.99,,2013-07-13 16:11:00,
2013-07-13 11:22:00,82.0,62.0,-100.00,NNE,15,2.0,3.0,50,-99.99,,,-99.99,,2013-07-13 16:22:00,
2013-07-13 11:43:00,83.0,61.0,-100.00,ENE,70,3.0,4.0,48,-99.99,,,-99.99,,2013-07-13 16:43:00,
2013-07-13 11:53:00,83.0,61.0,-100.00,ENE,70,3.0,4.0,48,-99.99,,,-99.99,,2013-07-13 16:53:00,
2013-07-13 12:12:00,83.0,60.0,-100.00,ENE,65,9.0,12.0,46,-99.99,,,-99.99,,2013-07-13 17:12:00,
2013-07-13 12:22:00,83.0,60.0,-100.00,ENE,65,9.0,12.0,46,-99.99,,,-99.99,,2013-07-13 17:22:00,
2013-07-13 12:43:00,82.0,61.0,-100.00,ENE,75,10.0,14.0,49,-99.99,,,-99.99,,2013-07-13 17:43:00,
2013-07-13 12:52:00,82.0,61.0,-100.00,ENE,75,10.0,14.0,49,-99.99,,,-99.99,,2013-07-13 17:52:00,
2013-07-13 13:22:00,82.0,60.0,-100.00,ENE,75,8.0,9.0,48,-99.99,,,-99.99,,2013-07-13 18:22:00,
2013-07-13 13:44:00,82.0,60.0,-100.00,East,90,6.0,9.0,47,-99.99,,,-99.99,,2013-07-13 18:44:00,
2013-07-13 13:53:00,82.0,60.0,-100.00,East,90,6.0,9.0,47,-99.99,,,-99.99,,2013-07-13 18:53:00,
2013-07-13 14:11:00,83.0,61.0,-100.00,ENE,65,6.0,10.0,47,-99.99,,,-99.99,,2013-07-13 19:11:00,
2013-07-13 14:22:00,83.0,61.0,-100.00,ENE,65,6.0,10.0,47,-99.99,,,-99.99,,2013-07-13 19:22:00,
2013-07-13 14:32:00,83.0,60.0,-100.00,ENE,75,9.0,10.0,45,-99.99,,,-99.99,,2013-07-13 19:32:00,
2013-07-13 14:52:00,84.0,60.0,-100.00,East,90,8.0,10.0,44,-99.99,,,-99.99,,2013-07-13 19:52:00,
2013-07-13 15:11:00,85.0,62.0,-100.00,ENE,60,6.0,14.0,46,-99.99,,,-99.99,,2013-07-13 20:11:00,
2013-07-13 15:22:00,85.0,62.0,-100.00,ENE,60,6.0,14.0,46,-99.99,,,-99.99,,2013-07-13 20:22:00,
2013-07-13 15:43:00,84.0,61.0,-100.00,ENE,75,2.0,6.0,45,-99.99,,,-99.99,,2013-07-13 20:43:00,
2013-07-13 15:53:00,84.0,61.0,-100.00,ENE,75,2.0,6.0,45,-99.99,,,-99.99,,2013-07-13 20:53:00,
2013-07-13 16:12:00,85.0,60.0,-100.00,East,85,2.0,4.0,43,-99.99,,,-99.99,,2013-07-13 21:12:00,
2013-07-13 16:22:00,85.0,60.0,-100.00,East,85,2.0,4.0,43,-99.99,,,-99.99,,2013-07-13 21:22:00,
2013-07-13 16:53:00,85.0,60.0,-100.00,NE,40,4.0,4.0,43,-99.99,,,-99.99,,2013-07-13 21:53:00,
2013-07-13 17:12:00,85.0,60.0,-100.00,NE,55,3.0,4.0,43,-99.99,,,-99.99,,2013-07-13 22:12:00,
2013-07-13 17:22:00,85.0,60.0,-100.00,NE,55,3.0,4.0,43,-99.99,,,-99.99,,2013-07-13 22:22:00,
2013-07-13 17:43:00,84.0,60.0,-100.00,NE,55,3.0,6.0,44,-99.99,,,-99.99,,2013-07-13 22:43:00,
2013-07-13 17:53:00,84.0,60.0,-100.00,NE,55,3.0,6.0,44,-99.99,,,-99.99,,2013-07-13 22:53:00,
2013-07-13 18:11:00,84.0,59.0,-100.00,NE,50,4.0,6.0,42,-99.99,,,-99.99,,2013-07-13 23:11:00,
2013-07-13 18:22:00,84.0,59.0,-100.00,NE,50,4.0,6.0,42,-99.99,,,-99.99,,2013-07-13 23:22:00,
2013-07-13 18:42:00,84.0,59.0,-100.00,NE,40,6.0,9.0,43,-99.99,,,-99.99,,2013-07-13 23:42:00,
2013-07-13 18:53:00,84.0,59.0,-100.00,NE,40,6.0,9.0,43,-99.99,,,-99.99,,2013-07-13 23:53:00,
2013-07-13 19:21:00,83.0,59.0,-100.00,NNE,30,3.0,6.0,45,-99.99,,,-99.99,,2013-07-14 00:21:00,
2013-07-13 19:33:00,83.0,59.0,-100.00,NNE,30,3.0,6.0,45,-99.99,,,-99.99,,2013-07-14 00:33:00,
2013-07-13 19:53:00,82.0,60.0,-100.00,ENE,70,4.0,6.0,48,-99.99,,,-99.99,,2013-07-14 00:53:00,
2013-07-13 20:02:00,80.0,59.0,-100.00,ENE,75,1.0,4.0,49,-99.99,,,-99.99,,2013-07-14 01:02:00,
2013-07-13 20:11:00,80.0,59.0,-100.00,ENE,60,3.0,3.0,50,-99.99,,,-99.99,,2013-07-14 01:11:00,
2013-07-13 20:22:00,80.0,59.0,-100.00,ENE,60,3.0,3.0,50,-99.99,,,-99.99,,2013-07-14 01:22:00,
2013-07-13 20:43:00,77.0,61.0,-100.00,NE,35,3.0,4.0,58,-99.99,,,-99.99,,2013-07-14 01:43:00,
2013-07-13 20:52:00,77.0,61.0,-100.00,NE,35,3.0,4.0,58,-99.99,,,-99.99,,2013-07-14 01:52:00,
2013-07-13 21:11:00,75.0,62.0,-100.00,North,350,2.0,3.0,65,-99.99,,,-99.99,,2013-07-14 02:11:00,
2013-07-13 21:22:00,75.0,62.0,-100.00,North,350,2.0,3.0,65,-99.99,,,-99.99,,2013-07-14 02:22:00,
2013-07-13 21:32:00,74.0,63.0,-100.00,North,355,3.0,3.0,69,-99.99,,,-99.99,,2013-07-14 02:32:00,
2013-07-13 21:43:00,74.0,64.0,-100.00,North,0,1.0,3.0,72,-99.99,,,-99.99,,2013-07-14 02:43:00,
2013-07-13 21:53:00,74.0,64.0,-100.00,North,0,1.0,3.0,72,-99.99,,,-99.99,,2013-07-14 02:53:00,
2013-07-13 22:11:00,72.0,66.0,-100.00,South,170,0.0,2.0,83,-99.99,,,-99.99,,2013-07-14 03:11:00,
2013-07-13 22:22:00,72.0,66.0,-100.00,South,170,0.0,2.0,83,-99.99,,,-99.99,,2013-07-14 03:22:00,
2013-07-13 22:53:00,71.0,67.0,-100.00,ESE,120,0.0,0.0,88,-99.99,,,-99.99,,2013-07-14 03:53:00,
2013-07-13 23:11:00,71.0,65.0,-100.00,ENE,75,8.0,10.0,82,-99.99,,,-99.99,,2013-07-14 04:11:00,
2013-07-13 23:22:00,71.0,65.0,-100.00,ENE,75,8.0,10.0,82,-99.99,,,-99.99,,2013-07-14 04:22:00,
2013-07-13 23:32:00,71.0,63.0,-100.00,East,85,6.0,6.0,77,-99.99,,,-99.99,,2013-07-14 04:32:00,
2013-07-13 23:42:00,71.0,63.0,-100.00,ENE,75,10.0,12.0,75,-99.99,,,-99.99,,2013-07-14 04:42:00,
2013-07-13 23:54:00,71.0,63.0,-100.00,ENE,75,10.0,12.0,75,-99.99,,,-99.99,,2013-07-14 04:54:00,